Hanjin Valencia — 3FSR7 — position and weather

sailwx.info

Track history (hours):
 
Tides and Currents Weather Stations Pressure Air Temp Water Temp Dewpoint Dewpoint Depression Visibility Wind Speed Wind Dir Waves Ship Positions

Hanjin Valencia

Last reported at 2017-Nov-24 09:30 UTC. Time now 2017-Nov-24 09:43 UTC.
Position N 55°41' E 012°41'.

Length 183 m; draft 7.6 m.

Type: Tanker. MMSI: 374057000.

Date/timePositionNaut miles runAvg speedWind from/ knotsBaromVisibWave heightAir tempDewpointWater temp
2017-Nov-24 09:30N 55°41' E 012°41'713.9
2017-Nov-24 09:01N 55°47' E 012°42'713.4
2017-Nov-24 08:30N 55°54' E 012°39'713.2
2017-Nov-24 08:00N 56°01' E 012°40'612.0
2017-Nov-24 07:30N 56°06' E 012°34'4 7.3
2017-Nov-24 07:00N 56°08' E 012°29'2 4.4
2017-Nov-24 06:30N 56°09' E 012°26'3 6.5
2017-Nov-24 06:00N 56°11' E 012°21'3 5.8
2017-Nov-24 05:30N 56°13' E 012°17'612.0
2017-Nov-24 05:00N 56°16' E 012°08'4812.7
2017-Nov-24 01:15N 57°02' E 011°42'512.0
2017-Nov-24 00:49N 57°06' E 011°38'411.7
2017-Nov-24 00:30N 57°10' E 011°36'611.7
2017-Nov-24 00:01N 57°15' E 011°32'611.7
2017-Nov-23 23:30N 57°21' E 011°28'611.5
2017-Nov-23 23:00N 57°26' E 011°25'611.5
2017-Nov-23 22:30N 57°31' E 011°19'611.4
2017-Nov-23 22:00N 57°36' E 011°13'612.0
2017-Nov-23 21:30N 57°40' E 011°06'611.8
2017-Nov-23 21:00N 57°45' E 011°00'612.4
2017-Nov-23 20:31N 57°51' E 010°54'713.1
2017-Nov-23 20:00N 57°52' E 010°42'713.4
2017-Nov-23 19:30N 57°52' E 010°29'612.2
2017-Nov-23 19:00N 57°52' E 010°18'6913.2
2017-Nov-23 13:49N 57°26' E 008°19'513.7
2017-Nov-23 13:29N 57°25' E 008°11'713.9
2017-Nov-23 13:00N 57°22' E 007°60'713.8
2017-Nov-23 12:29N 57°19' E 007°48'89 6.1
2017-Nov-22 21:49N 57°48' E 010°25'411.5
2017-Nov-22 21:30N 57°48' E 010°32'611.8
2017-Nov-22 21:00N 57°48' E 010°43'612.0
2017-Nov-22 20:30N 57°42' E 010°45'5 9.6
2017-Nov-22 20:00N 57°38' E 010°41'1 1.2
2017-Nov-22 19:16N 57°38' E 010°39'  
2017-Nov-20 00:22N 57°38' E 010°39'0 0.0
2017-Nov-19 23:58N 57°38' E 010°39'0 0.2
2017-Nov-19 23:28N 57°38' E 010°39'0 0.1
2017-Nov-19 22:55N 57°38' E 010°39'0 0.0
2017-Nov-19 22:28N 57°38' E 010°39'0 0.1
2017-Nov-19 21:58N 57°38' E 010°39'0 0.0
2017-Nov-19 21:28N 57°38' E 010°39'0 0.0
2017-Nov-19 20:58N 57°38' E 010°39'0 0.0
2017-Nov-19 20:28N 57°38' E 010°39'0 0.0
2017-Nov-19 19:58N 57°38' E 010°39'0 0.0
2017-Nov-19 19:28N 57°38' E 010°39'0 0.0
2017-Nov-19 18:58N 57°38' E 010°39'0 0.0
2017-Nov-19 18:28N 57°38' E 010°39'0 0.0
2017-Nov-19 17:46N 57°38' E 010°39'0 0.0
2017-Nov-19 16:49N 57°38' E 010°39'0 0.0
2017-Nov-19 15:46N 57°38' E 010°39'0 0.0
2017-Nov-19 15:28N 57°38' E 010°39'0 0.1
2017-Nov-19 14:52N 57°38' E 010°39'0 0.1
2017-Nov-19 14:10N 57°38' E 010°39'0 0.3
2017-Nov-19 13:58N 57°38' E 010°39'0 0.0
2017-Nov-19 13:22N 57°38' E 010°39'0 0.0
2017-Nov-19 12:58N 57°38' E 010°39'0 0.0
2017-Nov-19 12:28N 57°38' E 010°39'0 0.0
2017-Nov-19 11:58N 57°38' E 010°39'0 0.0
2017-Nov-19 11:28N 57°38' E 010°39'0 0.0
2017-Nov-19 10:58N 57°38' E 010°39'0 0.1
2017-Nov-19 10:22N 57°38' E 010°39'0 0.1
2017-Nov-19 09:58N 57°38' E 010°39'0 0.1
2017-Nov-19 09:25N 57°38' E 010°39'0 0.0
2017-Nov-19 08:37N 57°38' E 010°39'0 0.0
2017-Nov-19 08:28N 57°38' E 010°39'0 0.1
2017-Nov-19 07:55N 57°38' E 010°39'0 0.1
2017-Nov-19 06:58N 57°38' E 010°39'0 0.0
2017-Nov-19 06:28N 57°38' E 010°39'0 0.0
2017-Nov-19 05:58N 57°38' E 010°39'0 0.0
2017-Nov-19 05:28N 57°38' E 010°39'0 0.1
2017-Nov-19 04:58N 57°38' E 010°39'0 0.0
2017-Nov-19 04:28N 57°38' E 010°39'0 0.0
2017-Nov-19 03:58N 57°38' E 010°39'0 0.0
2017-Nov-19 03:28N 57°38' E 010°39'0 0.0
2017-Nov-19 02:58N 57°38' E 010°39'0 0.1
2017-Nov-19 02:28N 57°38' E 010°39'0 0.0
2017-Nov-19 01:58N 57°38' E 010°39'0 0.1
2017-Nov-19 01:25N 57°38' E 010°40'0 0.0
2017-Nov-18 23:04N 57°38' E 010°40'0 0.0
2017-Nov-18 21:58N 57°38' E 010°40'0 0.0
2017-Nov-18 21:28N 57°38' E 010°40'0 0.0
2017-Nov-18 20:58N 57°38' E 010°40'0 0.0
2017-Nov-18 20:28N 57°38' E 010°40'0 0.0
2017-Nov-18 19:40N 57°38' E 010°40'0 0.0
2017-Nov-18 19:25N 57°38' E 010°40'0 0.0
2017-Nov-18 18:22N 57°38' E 010°40'0 0.0
2017-Nov-18 17:49N 57°38' E 010°40'0 0.0
2017-Nov-18 17:16N 57°38' E 010°40'0 0.0
2017-Nov-18 16:16N 57°38' E 010°40'0 0.1
2017-Nov-18 15:49N 57°38' E 010°40'0 0.1
2017-Nov-18 15:28N 57°38' E 010°40'0 0.0
2017-Nov-18 14:55N 57°38' E 010°40'0 0.1
2017-Nov-18 14:28N 57°38' E 010°40'0 0.1
2017-Nov-18 13:43N 57°38' E 010°40'0 0.0
2017-Nov-18 13:28N 57°38' E 010°40'0 0.0
2017-Nov-18 12:58N 57°38' E 010°40'0 0.0
2017-Nov-18 12:22N 57°38' E 010°40'0 0.0
2017-Nov-18 11:49N 57°38' E 010°40'0 0.0
2017-Nov-18 10:31N 57°38' E 010°40'0 0.0
2017-Nov-18 10:16N 57°38' E 010°40'0 0.2
2017-Nov-18 09:58N 57°38' E 010°40'0 0.0
2017-Nov-18 09:10N 57°38' E 010°40'0 0.0
2017-Nov-18 08:55N 57°38' E 010°40'0 0.0
2017-Nov-18 08:28N 57°38' E 010°40'0 0.0
2017-Nov-18 07:52N 57°38' E 010°40'0 0.0
2017-Nov-18 07:25N 57°38' E 010°40'0 0.0
2017-Nov-18 06:58N 57°38' E 010°40'0 0.0
2017-Nov-18 05:49N 57°38' E 010°40'0 0.1
2017-Nov-18 05:25N 57°38' E 010°40'0 0.0
2017-Nov-18 04:58N 57°38' E 010°40'0 0.0
2017-Nov-18 04:28N 57°38' E 010°40'0 0.0
2017-Nov-18 03:34N 57°38' E 010°40'0 0.4
2017-Nov-18 03:28N 57°38' E 010°40'0 0.0
2017-Nov-18 02:58N 57°38' E 010°40'0 0.0
2017-Nov-18 01:55N 57°38' E 010°40'0 0.1
2017-Nov-18 01:28N 57°38' E 010°40'0 0.0
2017-Nov-18 00:58N 57°38' E 010°40'0 0.0
2017-Nov-18 00:25N 57°38' E 010°40'0 0.1
2017-Nov-17 23:40N 57°38' E 010°40'0 0.2
2017-Nov-17 23:28N 57°38' E 010°40'0 0.1
2017-Nov-17 22:58N 57°38' E 010°40'0 0.0
2017-Nov-17 22:25N 57°38' E 010°40'0 0.0
2017-Nov-17 21:52N 57°38' E 010°40'0 0.0
2017-Nov-17 21:22N 57°38' E 010°40'0 0.0
2017-Nov-17 20:37N 57°38' E 010°40'0 0.0
2017-Nov-17 20:25N 57°38' E 010°40'0 0.0
2017-Nov-17 19:40N 57°38' E 010°40'0 0.0
2017-Nov-17 19:19N 57°38' E 010°40'0 0.0
2017-Nov-17 18:52N 57°38' E 010°40'0 0.0
2017-Nov-17 18:28N 57°38' E 010°40'0 0.0
2017-Nov-17 17:52N 57°38' E 010°40'0 0.0
2017-Nov-17 17:28N 57°38' E 010°40'0 0.0
2017-Nov-17 16:58N 57°38' E 010°40'0 0.1
2017-Nov-17 16:28N 57°38' E 010°40'0 0.1
2017-Nov-17 15:55N 57°38' E 010°40'0 0.0
2017-Nov-17 15:28N 57°38' E 010°40'0 0.0
2017-Nov-17 14:52N 57°38' E 010°40'0 0.1
2017-Nov-17 14:13N 57°38' E 010°40'0 0.0
2017-Nov-17 13:43N 57°38' E 010°40'0 0.1
2017-Nov-17 13:22N 57°38' E 010°40'0 0.0
2017-Nov-17 12:22N 57°38' E 010°40'0 0.1
2017-Nov-17 11:55N 57°38' E 010°40'0 0.0
2017-Nov-17 11:19N 57°38' E 010°40'0 0.1
2017-Nov-17 10:58N 57°38' E 010°40'0 0.1
2017-Nov-17 10:19N 57°38' E 010°40'0 0.1
2017-Nov-17 09:58N 57°38' E 010°40'0 0.0
2017-Nov-17 09:28N 57°38' E 010°40'0 0.0
2017-Nov-17 08:58N 57°38' E 010°40'0 0.0
2017-Nov-17 08:07N 57°38' E 010°40'0 0.0
2017-Nov-17 07:58N 57°38' E 010°40'0 0.0
2017-Nov-17 07:13N 57°38' E 010°40'0 0.1
2017-Nov-17 06:58N 57°38' E 010°40'0 0.0
2017-Nov-17 06:25N 57°38' E 010°40'0 0.0
2017-Nov-17 05:49N 57°38' E 010°40'0 0.0
2017-Nov-17 04:49N 57°38' E 010°40'0 0.0
2017-Nov-17 04:25N 57°38' E 010°40'0 0.0
2017-Nov-17 03:28N 57°38' E 010°40'0 0.0
2017-Nov-17 02:58N 57°38' E 010°40'0 0.1
2017-Nov-17 02:28N 57°38' E 010°40'0 0.0
2017-Nov-17 01:55N 57°38' E 010°40'0 0.0
2017-Nov-17 01:16N 57°38' E 010°40'0 0.1
2017-Nov-17 00:55N 57°38' E 010°40'0 0.1
2017-Nov-17 00:13N 57°38' E 010°40'0 0.0
2017-Nov-16 23:58N 57°38' E 010°40'0 0.0
2017-Nov-16 23:25N 57°38' E 010°40'0 0.0
2017-Nov-16 22:58N 57°38' E 010°40'0 0.0
2017-Nov-16 21:58N 57°38' E 010°40'0 0.0
2017-Nov-16 21:25N 57°38' E 010°40'0 0.0
2017-Nov-16 20:58N 57°38' E 010°40'0 0.0
2017-Nov-16 20:28N 57°38' E 010°40'0 0.0
2017-Nov-16 19:55N 57°38' E 010°40'0 0.1
2017-Nov-16 19:25N 57°38' E 010°40'0 0.0
2017-Nov-16 18:55N 57°38' E 010°40'0 0.2
2017-Nov-16 18:28N 57°38' E 010°39'0 0.0
2017-Nov-16 17:55N 57°38' E 010°39'0 0.0
2017-Nov-16 17:22N 57°38' E 010°39'0 0.0
2017-Nov-16 16:52N 57°38' E 010°39'0 0.0
2017-Nov-16 16:28N 57°38' E 010°39'0 0.0
2017-Nov-16 15:43N 57°38' E 010°39'0 0.0
2017-Nov-16 15:16N 57°38' E 010°39'0 0.0
2017-Nov-16 14:58N 57°38' E 010°39'0 0.0
2017-Nov-16 14:28N 57°38' E 010°39'0 0.0
2017-Nov-16 13:46N 57°38' E 010°39'0 0.0
2017-Nov-16 13:16N 57°38' E 010°39'0 0.0
2017-Nov-16 12:58N 57°38' E 010°39'0 0.0
2017-Nov-16 11:55N 57°38' E 010°39'0 0.0
2017-Nov-16 11:28N 57°38' E 010°39'0 0.0
2017-Nov-16 10:55N 57°38' E 010°39'0 0.0
2017-Nov-16 10:28N 57°38' E 010°39'0 0.1
2017-Nov-16 09:40N 57°38' E 010°39'0 0.0
2017-Nov-16 09:25N 57°38' E 010°39'0 0.0
2017-Nov-16 08:49N 57°38' E 010°39'0 0.0
2017-Nov-16 08:25N 57°38' E 010°39'0 0.0
2017-Nov-16 07:58N 57°38' E 010°39'0 0.0
2017-Nov-16 07:19N 57°38' E 010°39'0 0.0
2017-Nov-16 06:55N 57°38' E 010°39'0 0.0
2017-Nov-16 06:28N 57°38' E 010°39'0 0.0
2017-Nov-16 05:58N 57°38' E 010°39'0 0.0
2017-Nov-16 04:52N 57°38' E 010°40'0 0.0
2017-Nov-16 04:25N 57°38' E 010°39'0 0.0
2017-Nov-16 04:00N 57°38' E 010°39'0 0.0
2017-Nov-16 03:28N 57°38' E 010°40'0 0.0
2017-Nov-16 02:58N 57°38' E 010°40'0 0.0
2017-Nov-16 02:28N 57°38' E 010°40'0 0.0
2017-Nov-16 01:55N 57°38' E 010°40'0 0.0
2017-Nov-16 01:27N 57°38' E 010°40'0 0.0
2017-Nov-16 00:58N 57°38' E 010°40'0 0.0
2017-Nov-16 00:28N 57°38' E 010°40'0 0.0
2017-Nov-15 23:58N 57°38' E 010°40'0 0.0
2017-Nov-15 23:31N 57°38' E 010°40'0 0.0
2017-Nov-15 22:55N 57°38' E 010°40'0 0.0
2017-Nov-15 22:28N 57°38' E 010°40'0 0.1
2017-Nov-15 22:00N 57°38' E 010°40'0 0.0
2017-Nov-15 21:31N 57°38' E 010°40'0 0.0
2017-Nov-15 21:01N 57°38' E 010°40'0 0.0
2017-Nov-15 20:27N 57°38' E 010°40'0 0.0
2017-Nov-15 19:58N 57°38' E 010°40'0 0.0
2017-Nov-15 19:28N 57°38' E 010°40'0 0.0
2017-Nov-15 18:58N 57°38' E 010°40'0 0.0
2017-Nov-15 18:28N 57°38' E 010°40'0 0.0
2017-Nov-15 18:00N 57°38' E 010°40'0 0.0
2017-Nov-15 17:28N 57°38' E 010°40'0 0.0
2017-Nov-15 16:54N 57°38' E 010°40'0 0.0
2017-Nov-15 15:24N 57°38' E 010°40'0 0.0
2017-Nov-15 14:48N 57°38' E 010°40'0 0.0
2017-Nov-15 14:25N 57°38' E 010°40'0 0.0
2017-Nov-15 12:58N 57°38' E 010°40'0 0.0
2017-Nov-15 11:48N 57°38' E 010°40'0 0.0
2017-Nov-15 11:19N 57°38' E 010°40'0 0.0
2017-Nov-15 10:39N 57°38' E 010°40'0 0.0
2017-Nov-15 10:31N 57°38' E 010°40'0 0.0
2017-Nov-15 09:46N 57°38' E 010°40'0 0.0
2017-Nov-15 09:21N 57°38' E 010°40'0 0.0
2017-Nov-15 08:57N 57°38' E 010°40'0 0.0
2017-Nov-15 08:30N 57°38' E 010°40'0 0.0
2017-Nov-15 08:00N 57°38' E 010°40'0 0.0
2017-Nov-15 07:27N 57°38' E 010°40'0 0.0
2017-Nov-15 07:00N 57°38' E 010°40'0 0.0
2017-Nov-15 06:28N 57°38' E 010°40'0 0.0
2017-Nov-15 05:57N 57°38' E 010°40'0 0.0
2017-Nov-15 05:30N 57°38' E 010°40'0 0.0
2017-Nov-15 05:00N 57°38' E 010°40'0 0.0
2017-Nov-15 04:30N 57°38' E 010°40'0 0.0
2017-Nov-15 03:57N 57°38' E 010°40'0 0.0
2017-Nov-15 03:12N 57°38' E 010°40'0 0.0
2017-Nov-15 02:51N 57°38' E 010°40'0 0.0
2017-Nov-15 02:24N 57°38' E 010°40'0 0.0
2017-Nov-15 01:57N 57°38' E 010°40'0 0.0
2017-Nov-15 01:27N 57°38' E 010°40'0 0.0
2017-Nov-15 01:00N 57°38' E 010°40'0 0.0
2017-Nov-14 23:58N 57°38' E 010°40'0 0.0
2017-Nov-14 23:30N 57°38' E 010°40'0 0.0
2017-Nov-14 23:00N 57°38' E 010°40'0 0.0
2017-Nov-14 22:27N 57°38' E 010°40'0 0.0
2017-Nov-14 22:00N 57°38' E 010°40'0 0.0
2017-Nov-14 20:52N 57°38' E 010°40'0 0.0
2017-Nov-14 18:54N 57°38' E 010°40'0 0.0
2017-Nov-14 18:09N 57°38' E 010°40'0 0.0
2017-Nov-14 14:09N 57°38' E 010°40'0 0.1
2017-Nov-14 13:39N 57°38' E 010°40'0 0.2
2017-Nov-14 13:24N 57°38' E 010°40'0 0.3
2017-Nov-14 13:00N 57°38' E 010°39'0 0.1
2017-Nov-14 12:24N 57°38' E 010°39'0 0.0
2017-Nov-14 11:48N 57°38' E 010°39'0 0.0
2017-Nov-14 11:30N 57°38' E 010°39'0 0.0
2017-Nov-14 10:57N 57°38' E 010°39'0 0.0
2017-Nov-14 10:24N 57°38' E 010°39'0 0.0
2017-Nov-14 09:48N 57°38' E 010°39'  
Track history (hours):
 
Tides and Currents Weather Stations Pressure Air Temp Water Temp Dewpoint Dewpoint Depression Visibility Wind Speed Wind Dir Waves Ship Positions

Hanjin Valencia

Last reported at 2017-Nov-24 09:30 UTC. Time now 2017-Nov-24 09:43 UTC.
Position N 55°41' E 012°41'.

Length 183 m; draft 7.6 m.

Type: Tanker. MMSI: 374057000.

Date/timePositionNaut miles runAvg speedWind from/ knotsBaromVisibWave heightAir tempDewpointWater temp
2017-Nov-24 09:30N 55°41' E 012°41'713.9
2017-Nov-24 09:01N 55°47' E 012°42'713.4
2017-Nov-24 08:30N 55°54' E 012°39'713.2
2017-Nov-24 08:00N 56°01' E 012°40'612.0
2017-Nov-24 07:30N 56°06' E 012°34'4 7.3
2017-Nov-24 07:00N 56°08' E 012°29'2 4.4
2017-Nov-24 06:30N 56°09' E 012°26'3 6.5
2017-Nov-24 06:00N 56°11' E 012°21'3 5.8
2017-Nov-24 05:30N 56°13' E 012°17'612.0
2017-Nov-24 05:00N 56°16' E 012°08'4812.7
2017-Nov-24 01:15N 57°02' E 011°42'512.0
2017-Nov-24 00:49N 57°06' E 011°38'411.7
2017-Nov-24 00:30N 57°10' E 011°36'611.7
2017-Nov-24 00:01N 57°15' E 011°32'611.7
2017-Nov-23 23:30N 57°21' E 011°28'611.5
2017-Nov-23 23:00N 57°26' E 011°25'611.5
2017-Nov-23 22:30N 57°31' E 011°19'611.4
2017-Nov-23 22:00N 57°36' E 011°13'612.0
2017-Nov-23 21:30N 57°40' E 011°06'611.8
2017-Nov-23 21:00N 57°45' E 011°00'612.4
2017-Nov-23 20:31N 57°51' E 010°54'713.1
2017-Nov-23 20:00N 57°52' E 010°42'713.4
2017-Nov-23 19:30N 57°52' E 010°29'612.2
2017-Nov-23 19:00N 57°52' E 010°18'6913.2
2017-Nov-23 13:49N 57°26' E 008°19'513.7
2017-Nov-23 13:29N 57°25' E 008°11'713.9
2017-Nov-23 13:00N 57°22' E 007°60'713.8
2017-Nov-23 12:29N 57°19' E 007°48'89 6.1
2017-Nov-22 21:49N 57°48' E 010°25'411.5
2017-Nov-22 21:30N 57°48' E 010°32'611.8
2017-Nov-22 21:00N 57°48' E 010°43'612.0
2017-Nov-22 20:30N 57°42' E 010°45'5 9.6
2017-Nov-22 20:00N 57°38' E 010°41'1 1.2
2017-Nov-22 19:16N 57°38' E 010°39'  
2017-Nov-20 00:22N 57°38' E 010°39'0 0.0
2017-Nov-19 23:58N 57°38' E 010°39'0 0.2
2017-Nov-19 23:28N 57°38' E 010°39'0 0.1
2017-Nov-19 22:55N 57°38' E 010°39'0 0.0
2017-Nov-19 22:28N 57°38' E 010°39'0 0.1
2017-Nov-19 21:58N 57°38' E 010°39'0 0.0
2017-Nov-19 21:28N 57°38' E 010°39'0 0.0
2017-Nov-19 20:58N 57°38' E 010°39'0 0.0
2017-Nov-19 20:28N 57°38' E 010°39'0 0.0
2017-Nov-19 19:58N 57°38' E 010°39'0 0.0
2017-Nov-19 19:28N 57°38' E 010°39'0 0.0
2017-Nov-19 18:58N 57°38' E 010°39'0 0.0
2017-Nov-19 18:28N 57°38' E 010°39'0 0.0
2017-Nov-19 17:46N 57°38' E 010°39'0 0.0
2017-Nov-19 16:49N 57°38' E 010°39'0 0.0
2017-Nov-19 15:46N 57°38' E 010°39'0 0.0
2017-Nov-19 15:28N 57°38' E 010°39'0 0.1
2017-Nov-19 14:52N 57°38' E 010°39'0 0.1
2017-Nov-19 14:10N 57°38' E 010°39'0 0.3
2017-Nov-19 13:58N 57°38' E 010°39'0 0.0
2017-Nov-19 13:22N 57°38' E 010°39'0 0.0
2017-Nov-19 12:58N 57°38' E 010°39'0 0.0
2017-Nov-19 12:28N 57°38' E 010°39'0 0.0
2017-Nov-19 11:58N 57°38' E 010°39'0 0.0
2017-Nov-19 11:28N 57°38' E 010°39'0 0.0
2017-Nov-19 10:58N 57°38' E 010°39'0 0.1
2017-Nov-19 10:22N 57°38' E 010°39'0 0.1
2017-Nov-19 09:58N 57°38' E 010°39'0 0.1
2017-Nov-19 09:25N 57°38' E 010°39'0 0.0
2017-Nov-19 08:37N 57°38' E 010°39'0 0.0
2017-Nov-19 08:28N 57°38' E 010°39'0 0.1
2017-Nov-19 07:55N 57°38' E 010°39'0 0.1
2017-Nov-19 06:58N 57°38' E 010°39'0 0.0
2017-Nov-19 06:28N 57°38' E 010°39'0 0.0
2017-Nov-19 05:58N 57°38' E 010°39'0 0.0
2017-Nov-19 05:28N 57°38' E 010°39'0 0.1
2017-Nov-19 04:58N 57°38' E 010°39'0 0.0
2017-Nov-19 04:28N 57°38' E 010°39'0 0.0
2017-Nov-19 03:58N 57°38' E 010°39'0 0.0
2017-Nov-19 03:28N 57°38' E 010°39'0 0.0
2017-Nov-19 02:58N 57°38' E 010°39'0 0.1
2017-Nov-19 02:28N 57°38' E 010°39'0 0.0
2017-Nov-19 01:58N 57°38' E 010°39'0 0.1
2017-Nov-19 01:25N 57°38' E 010°40'0 0.0
2017-Nov-18 23:04N 57°38' E 010°40'0 0.0
2017-Nov-18 21:58N 57°38' E 010°40'0 0.0
2017-Nov-18 21:28N 57°38' E 010°40'0 0.0
2017-Nov-18 20:58N 57°38' E 010°40'0 0.0
2017-Nov-18 20:28N 57°38' E 010°40'0 0.0
2017-Nov-18 19:40N 57°38' E 010°40'0 0.0
2017-Nov-18 19:25N 57°38' E 010°40'0 0.0
2017-Nov-18 18:22N 57°38' E 010°40'0 0.0
2017-Nov-18 17:49N 57°38' E 010°40'0 0.0
2017-Nov-18 17:16N 57°38' E 010°40'0 0.0
2017-Nov-18 16:16N 57°38' E 010°40'0 0.1
2017-Nov-18 15:49N 57°38' E 010°40'0 0.1
2017-Nov-18 15:28N 57°38' E 010°40'0 0.0
2017-Nov-18 14:55N 57°38' E 010°40'0 0.1
2017-Nov-18 14:28N 57°38' E 010°40'0 0.1
2017-Nov-18 13:43N 57°38' E 010°40'0 0.0
2017-Nov-18 13:28N 57°38' E 010°40'0 0.0
2017-Nov-18 12:58N 57°38' E 010°40'0 0.0
2017-Nov-18 12:22N 57°38' E 010°40'0 0.0
2017-Nov-18 11:49N 57°38' E 010°40'0 0.0
2017-Nov-18 10:31N 57°38' E 010°40'0 0.0
2017-Nov-18 10:16N 57°38' E 010°40'0 0.2
2017-Nov-18 09:58N 57°38' E 010°40'0 0.0
2017-Nov-18 09:10N 57°38' E 010°40'0 0.0
2017-Nov-18 08:55N 57°38' E 010°40'0 0.0
2017-Nov-18 08:28N 57°38' E 010°40'0 0.0
2017-Nov-18 07:52N 57°38' E 010°40'0 0.0
2017-Nov-18 07:25N 57°38' E 010°40'0 0.0
2017-Nov-18 06:58N 57°38' E 010°40'0 0.0
2017-Nov-18 05:49N 57°38' E 010°40'0 0.1
2017-Nov-18 05:25N 57°38' E 010°40'0 0.0
2017-Nov-18 04:58N 57°38' E 010°40'0 0.0
2017-Nov-18 04:28N 57°38' E 010°40'0 0.0
2017-Nov-18 03:34N 57°38' E 010°40'0 0.4
2017-Nov-18 03:28N 57°38' E 010°40'0 0.0
2017-Nov-18 02:58N 57°38' E 010°40'0 0.0
2017-Nov-18 01:55N 57°38' E 010°40'0 0.1
2017-Nov-18 01:28N 57°38' E 010°40'0 0.0
2017-Nov-18 00:58N 57°38' E 010°40'0 0.0
2017-Nov-18 00:25N 57°38' E 010°40'0 0.1
2017-Nov-17 23:40N 57°38' E 010°40'0 0.2
2017-Nov-17 23:28N 57°38' E 010°40'0 0.1
2017-Nov-17 22:58N 57°38' E 010°40'0 0.0
2017-Nov-17 22:25N 57°38' E 010°40'0 0.0
2017-Nov-17 21:52N 57°38' E 010°40'0 0.0
2017-Nov-17 21:22N 57°38' E 010°40'0 0.0
2017-Nov-17 20:37N 57°38' E 010°40'0 0.0
2017-Nov-17 20:25N 57°38' E 010°40'0 0.0
2017-Nov-17 19:40N 57°38' E 010°40'0 0.0
2017-Nov-17 19:19N 57°38' E 010°40'0 0.0
2017-Nov-17 18:52N 57°38' E 010°40'0 0.0
2017-Nov-17 18:28N 57°38' E 010°40'0 0.0
2017-Nov-17 17:52N 57°38' E 010°40'0 0.0
2017-Nov-17 17:28N 57°38' E 010°40'0 0.0
2017-Nov-17 16:58N 57°38' E 010°40'0 0.1
2017-Nov-17 16:28N 57°38' E 010°40'0 0.1
2017-Nov-17 15:55N 57°38' E 010°40'0 0.0
2017-Nov-17 15:28N 57°38' E 010°40'0 0.0
2017-Nov-17 14:52N 57°38' E 010°40'0 0.1
2017-Nov-17 14:13N 57°38' E 010°40'0 0.0
2017-Nov-17 13:43N 57°38' E 010°40'0 0.1
2017-Nov-17 13:22N 57°38' E 010°40'0 0.0
2017-Nov-17 12:22N 57°38' E 010°40'0 0.1
2017-Nov-17 11:55N 57°38' E 010°40'0 0.0
2017-Nov-17 11:19N 57°38' E 010°40'0 0.1
2017-Nov-17 10:58N 57°38' E 010°40'0 0.1
2017-Nov-17 10:19N 57°38' E 010°40'0 0.1
2017-Nov-17 09:58N 57°38' E 010°40'0 0.0
2017-Nov-17 09:28N 57°38' E 010°40'0 0.0
2017-Nov-17 08:58N 57°38' E 010°40'0 0.0
2017-Nov-17 08:07N 57°38' E 010°40'0 0.0
2017-Nov-17 07:58N 57°38' E 010°40'0 0.0
2017-Nov-17 07:13N 57°38' E 010°40'0 0.1
2017-Nov-17 06:58N 57°38' E 010°40'0 0.0
2017-Nov-17 06:25N 57°38' E 010°40'0 0.0
2017-Nov-17 05:49N 57°38' E 010°40'0 0.0
2017-Nov-17 04:49N 57°38' E 010°40'0 0.0
2017-Nov-17 04:25N 57°38' E 010°40'0 0.0
2017-Nov-17 03:28N 57°38' E 010°40'0 0.0
2017-Nov-17 02:58N 57°38' E 010°40'0 0.1
2017-Nov-17 02:28N 57°38' E 010°40'0 0.0
2017-Nov-17 01:55N 57°38' E 010°40'0 0.0
2017-Nov-17 01:16N 57°38' E 010°40'0 0.1
2017-Nov-17 00:55N 57°38' E 010°40'0 0.1
2017-Nov-17 00:13N 57°38' E 010°40'0 0.0
2017-Nov-16 23:58N 57°38' E 010°40'0 0.0
2017-Nov-16 23:25N 57°38' E 010°40'0 0.0
2017-Nov-16 22:58N 57°38' E 010°40'0 0.0
2017-Nov-16 21:58N 57°38' E 010°40'0 0.0
2017-Nov-16 21:25N 57°38' E 010°40'0 0.0
2017-Nov-16 20:58N 57°38' E 010°40'0 0.0
2017-Nov-16 20:28N 57°38' E 010°40'0 0.0
2017-Nov-16 19:55N 57°38' E 010°40'0 0.1
2017-Nov-16 19:25N 57°38' E 010°40'0 0.0
2017-Nov-16 18:55N 57°38' E 010°40'0 0.2
2017-Nov-16 18:28N 57°38' E 010°39'0 0.0
2017-Nov-16 17:55N 57°38' E 010°39'0 0.0
2017-Nov-16 17:22N 57°38' E 010°39'0 0.0
2017-Nov-16 16:52N 57°38' E 010°39'0 0.0
2017-Nov-16 16:28N 57°38' E 010°39'0 0.0
2017-Nov-16 15:43N 57°38' E 010°39'0 0.0
2017-Nov-16 15:16N 57°38' E 010°39'0 0.0
2017-Nov-16 14:58N 57°38' E 010°39'0 0.0
2017-Nov-16 14:28N 57°38' E 010°39'0 0.0
2017-Nov-16 13:46N 57°38' E 010°39'0 0.0
2017-Nov-16 13:16N 57°38' E 010°39'0 0.0
2017-Nov-16 12:58N 57°38' E 010°39'0 0.0
2017-Nov-16 11:55N 57°38' E 010°39'0 0.0
2017-Nov-16 11:28N 57°38' E 010°39'0 0.0
2017-Nov-16 10:55N 57°38' E 010°39'0 0.0
2017-Nov-16 10:28N 57°38' E 010°39'0 0.1
2017-Nov-16 09:40N 57°38' E 010°39'0 0.0
2017-Nov-16 09:25N 57°38' E 010°39'0 0.0
2017-Nov-16 08:49N 57°38' E 010°39'0 0.0
2017-Nov-16 08:25N 57°38' E 010°39'0 0.0
2017-Nov-16 07:58N 57°38' E 010°39'0 0.0
2017-Nov-16 07:19N 57°38' E 010°39'0 0.0
2017-Nov-16 06:55N 57°38' E 010°39'0 0.0
2017-Nov-16 06:28N 57°38' E 010°39'0 0.0
2017-Nov-16 05:58N 57°38' E 010°39'0 0.0
2017-Nov-16 04:52N 57°38' E 010°40'0 0.0
2017-Nov-16 04:25N 57°38' E 010°39'0 0.0
2017-Nov-16 04:00N 57°38' E 010°39'0 0.0
2017-Nov-16 03:28N 57°38' E 010°40'0 0.0
2017-Nov-16 02:58N 57°38' E 010°40'0 0.0
2017-Nov-16 02:28N 57°38' E 010°40'0 0.0
2017-Nov-16 01:55N 57°38' E 010°40'0 0.0
2017-Nov-16 01:27N 57°38' E 010°40'0 0.0
2017-Nov-16 00:58N 57°38' E 010°40'0 0.0
2017-Nov-16 00:28N 57°38' E 010°40'0 0.0
2017-Nov-15 23:58N 57°38' E 010°40'0 0.0
2017-Nov-15 23:31N 57°38' E 010°40'0 0.0
2017-Nov-15 22:55N 57°38' E 010°40'0 0.0
2017-Nov-15 22:28N 57°38' E 010°40'0 0.1
2017-Nov-15 22:00N 57°38' E 010°40'0 0.0
2017-Nov-15 21:31N 57°38' E 010°40'0 0.0
2017-Nov-15 21:01N 57°38' E 010°40'0 0.0
2017-Nov-15 20:27N 57°38' E 010°40'0 0.0
2017-Nov-15 19:58N 57°38' E 010°40'0 0.0
2017-Nov-15 19:28N 57°38' E 010°40'0 0.0
2017-Nov-15 18:58N 57°38' E 010°40'0 0.0
2017-Nov-15 18:28N 57°38' E 010°40'0 0.0
2017-Nov-15 18:00N 57°38' E 010°40'0 0.0
2017-Nov-15 17:28N 57°38' E 010°40'0 0.0
2017-Nov-15 16:54N 57°38' E 010°40'0 0.0
2017-Nov-15 15:24N 57°38' E 010°40'0 0.0
2017-Nov-15 14:48N 57°38' E 010°40'0 0.0
2017-Nov-15 14:25N 57°38' E 010°40'0 0.0
2017-Nov-15 12:58N 57°38' E 010°40'0 0.0
2017-Nov-15 11:48N 57°38' E 010°40'0 0.0
2017-Nov-15 11:19N 57°38' E 010°40'0 0.0
2017-Nov-15 10:39N 57°38' E 010°40'0 0.0
2017-Nov-15 10:31N 57°38' E 010°40'0 0.0
2017-Nov-15 09:46N 57°38' E 010°40'0 0.0
2017-Nov-15 09:21N 57°38' E 010°40'0 0.0
2017-Nov-15 08:57N 57°38' E 010°40'0 0.0
2017-Nov-15 08:30N 57°38' E 010°40'0 0.0
2017-Nov-15 08:00N 57°38' E 010°40'0 0.0
2017-Nov-15 07:27N 57°38' E 010°40'0 0.0
2017-Nov-15 07:00N 57°38' E 010°40'0 0.0
2017-Nov-15 06:28N 57°38' E 010°40'0 0.0
2017-Nov-15 05:57N 57°38' E 010°40'0 0.0
2017-Nov-15 05:30N 57°38' E 010°40'0 0.0
2017-Nov-15 05:00N 57°38' E 010°40'0 0.0
2017-Nov-15 04:30N 57°38' E 010°40'0 0.0
2017-Nov-15 03:57N 57°38' E 010°40'0 0.0
2017-Nov-15 03:12N 57°38' E 010°40'0 0.0
2017-Nov-15 02:51N 57°38' E 010°40'0 0.0
2017-Nov-15 02:24N 57°38' E 010°40'0 0.0
2017-Nov-15 01:57N 57°38' E 010°40'0 0.0
2017-Nov-15 01:27N 57°38' E 010°40'0 0.0
2017-Nov-15 01:00N 57°38' E 010°40'0 0.0
2017-Nov-14 23:58N 57°38' E 010°40'0 0.0
2017-Nov-14 23:30N 57°38' E 010°40'0 0.0
2017-Nov-14 23:00N 57°38' E 010°40'0 0.0
2017-Nov-14 22:27N 57°38' E 010°40'0 0.0
2017-Nov-14 22:00N 57°38' E 010°40'0 0.0
2017-Nov-14 20:52N 57°38' E 010°40'0 0.0
2017-Nov-14 18:54N 57°38' E 010°40'0 0.0
2017-Nov-14 18:09N 57°38' E 010°40'0 0.0
2017-Nov-14 14:09N 57°38' E 010°40'0 0.1
2017-Nov-14 13:39N 57°38' E 010°40'0 0.2
2017-Nov-14 13:24N 57°38' E 010°40'0 0.3
2017-Nov-14 13:00N 57°38' E 010°39'0 0.1
2017-Nov-14 12:24N 57°38' E 010°39'0 0.0
2017-Nov-14 11:48N 57°38' E 010°39'0 0.0
2017-Nov-14 11:30N 57°38' E 010°39'0 0.0
2017-Nov-14 10:57N 57°38' E 010°39'0 0.0
2017-Nov-14 10:24N 57°38' E 010°39'0 0.0
2017-Nov-14 09:48N 57°38' E 010°39'  

Dump ship's entire track history